createdAt,value
2022-10-17T00:00:33.725Z,0
2022-10-17T00:01:50.056Z,0
2022-10-17T00:03:06.349Z,0
2022-10-17T00:04:22.609Z,0
2022-10-17T00:05:38.936Z,0
2022-10-17T00:06:55.206Z,0
2022-10-17T00:08:10.501Z,0
2022-10-17T00:09:26.838Z,0
2022-10-17T00:10:43.104Z,0
2022-10-17T00:11:59.430Z,0
2022-10-17T00:13:15.714Z,0
2022-10-17T00:14:31.985Z,0
2022-10-17T00:15:48.303Z,0
2022-10-17T00:17:04.563Z,0
2022-10-17T00:18:20.860Z,0
2022-10-17T00:19:37.164Z,0
2022-10-17T00:20:53.479Z,0
2022-10-17T00:22:09.746Z,0
2022-10-17T00:23:26.064Z,0
2022-10-17T00:24:41.342Z,0
2022-10-17T00:25:57.672Z,0
2022-10-17T00:27:13.969Z,0
2022-10-17T00:28:30.262Z,0
2022-10-17T00:29:46.518Z,0
2022-10-17T00:31:02.845Z,0
2022-10-17T00:32:19.112Z,0
2022-10-17T00:33:35.405Z,0
2022-10-17T00:34:51.730Z,0
2022-10-17T00:36:08.016Z,0
2022-10-17T00:37:24.293Z,0
2022-10-17T00:38:40.613Z,0
2022-10-17T00:39:56.874Z,0
2022-10-17T00:41:12.178Z,0
2022-10-17T00:42:28.515Z,0
2022-10-17T00:43:44.771Z,0
2022-10-17T00:45:01.073Z,0
2022-10-17T00:46:17.395Z,0
2022-10-17T00:47:33.685Z,0
2022-10-17T00:48:49.987Z,0
2022-10-17T00:50:06.236Z,0
2022-10-17T00:51:22.538Z,0
2022-10-17T00:52:38.840Z,0
2022-10-17T00:53:55.165Z,0
2022-10-17T00:55:11.414Z,0
2022-10-17T00:56:27.712Z,0
2022-10-17T00:57:43.056Z,0
2022-10-17T00:58:59.351Z,0
2022-10-17T01:00:15.610Z,0
2022-10-17T01:01:31.934Z,0
2022-10-17T01:02:48.226Z,0
2022-10-17T01:04:04.529Z,0
2022-10-17T01:05:20.789Z,0
2022-10-17T01:06:37.079Z,0
2022-10-17T01:07:53.377Z,0
2022-10-17T01:09:09.670Z,0
2022-10-17T01:10:25.964Z,0
2022-10-17T01:11:42.261Z,0
2022-10-17T01:12:58.576Z,0
2022-10-17T01:14:13.898Z,0
2022-10-17T01:15:30.165Z,0
2022-10-17T01:16:46.494Z,0
2022-10-17T01:18:02.738Z,0
2022-10-17T01:19:19.041Z,0
2022-10-17T01:20:35.331Z,0
2022-10-17T01:21:51.666Z,0
2022-10-17T01:23:07.935Z,0
2022-10-17T01:24:24.242Z,0
2022-10-17T01:25:40.542Z,0
2022-10-17T01:26:56.832Z,0
2022-10-17T01:28:13.134Z,0
2022-10-17T01:29:29.386Z,0
2022-10-17T01:30:44.698Z,0
2022-10-17T01:32:01.022Z,0
2022-10-17T01:33:17.316Z,0
2022-10-17T01:34:33.625Z,0
2022-10-17T01:35:49.918Z,0
2022-10-17T01:37:06.213Z,0
2022-10-17T01:38:22.467Z,0
2022-10-17T01:39:38.803Z,0
2022-10-17T01:40:55.047Z,0
2022-10-17T01:42:11.390Z,0
2022-10-17T01:43:27.651Z,0
2022-10-17T01:44:43.967Z,0
2022-10-17T01:46:00.226Z,0
2022-10-17T01:47:15.574Z,0
2022-10-17T01:48:31.862Z,0
2022-10-17T01:49:48.122Z,0
2022-10-17T01:51:04.429Z,0
2022-10-17T01:52:20.709Z,0
2022-10-17T01:53:37.004Z,0
2022-10-17T01:54:53.343Z,0
2022-10-17T01:56:09.590Z,0
2022-10-17T01:57:25.900Z,0
2022-10-17T01:58:42.212Z,0
2022-10-17T01:59:58.510Z,0
2022-10-17T02:01:14.780Z,0
2022-10-17T02:02:31.064Z,0
2022-10-17T02:03:46.405Z,0
2022-10-17T02:05:02.673Z,0
2022-10-17T02:06:19.012Z,0
2022-10-17T02:07:35.293Z,0
2022-10-17T02:08:51.567Z,0
2022-10-17T02:10:07.883Z,0
2022-10-17T02:11:24.174Z,0
2022-10-17T02:12:40.430Z,0
2022-10-17T02:13:56.763Z,0
2022-10-17T02:15:13.026Z,0
2022-10-17T02:16:29.313Z,0
2022-10-17T02:17:45.606Z,0
2022-10-17T02:19:01.908Z,0
2022-10-17T02:20:17.247Z,0
2022-10-17T02:21:33.508Z,0
2022-10-17T02:22:49.814Z,0
2022-10-17T02:24:06.101Z,0
2022-10-17T02:25:22.426Z,0
2022-10-17T02:26:38.715Z,0
2022-10-17T02:27:55.012Z,0
2022-10-17T02:29:11.305Z,0
2022-10-17T02:30:27.565Z,0
2022-10-17T02:31:43.860Z,0
2022-10-17T02:33:00.204Z,0
2022-10-17T02:34:16.448Z,0
2022-10-17T02:35:32.777Z,0
2022-10-17T02:36:48.049Z,0
2022-10-17T02:38:04.346Z,0
2022-10-17T02:39:20.638Z,0
2022-10-17T02:40:36.940Z,0
2022-10-17T02:41:53.267Z,0
2022-10-17T02:43:09.521Z,0
2022-10-17T02:44:25.828Z,0
2022-10-17T02:45:42.111Z,0
2022-10-17T02:46:58.404Z,0
2022-10-17T02:48:14.710Z,0
2022-10-17T02:49:31.034Z,0
2022-10-17T02:50:47.317Z,0
2022-10-17T02:52:03.621Z,0
2022-10-17T02:53:18.893Z,0
2022-10-17T02:54:35.195Z,0
2022-10-17T02:55:51.513Z,0
2022-10-17T02:57:07.779Z,0
2022-10-17T02:58:24.102Z,0
2022-10-17T02:59:40.396Z,0
2022-10-17T03:00:56.698Z,0
2022-10-17T03:03:29.254Z,0
2022-10-17T03:04:45.543Z,0
2022-10-17T03:06:01.849Z,0
2022-10-17T03:07:18.140Z,0
2022-10-17T03:08:34.428Z,0
2022-10-17T03:09:49.738Z,0
2022-10-17T03:11:06.033Z,0
2022-10-17T03:12:22.326Z,0
2022-10-17T03:13:38.619Z,0
2022-10-17T03:14:54.914Z,0
2022-10-17T03:16:11.213Z,0
2022-10-17T03:17:27.500Z,0
2022-10-17T03:18:43.800Z,0
2022-10-17T03:20:00.093Z,0
2022-10-17T03:21:16.391Z,0
2022-10-17T03:22:32.677Z,0
2022-10-17T03:23:48.975Z,0
2022-10-17T03:25:05.270Z,0
2022-10-17T03:26:20.575Z,0
2022-10-17T03:27:36.887Z,0
2022-10-17T03:28:53.164Z,0
2022-10-17T03:30:09.457Z,0
2022-10-17T03:31:25.754Z,0
2022-10-17T03:32:42.044Z,0
2022-10-17T03:33:58.339Z,0
2022-10-17T03:35:14.645Z,0
2022-10-17T03:36:30.942Z,0
2022-10-17T03:37:47.235Z,0
2022-10-17T03:39:03.523Z,0
2022-10-17T03:40:19.813Z,0
2022-10-17T03:41:36.110Z,0
2022-10-17T03:42:51.433Z,0
2022-10-17T03:44:07.714Z,0
2022-10-17T03:45:24.013Z,0
2022-10-17T03:46:40.305Z,0
2022-10-17T03:47:56.610Z,0
2022-10-17T03:49:12.890Z,0
2022-10-17T03:50:29.182Z,0
2022-10-17T03:51:45.475Z,0
2022-10-17T03:53:01.774Z,0
2022-10-17T03:54:18.065Z,0
2022-10-17T03:55:34.363Z,0
2022-10-17T03:56:50.652Z,0
2022-10-17T03:58:06.943Z,0
2022-10-17T03:59:22.257Z,0
2022-10-17T04:00:38.549Z,0
2022-10-17T04:01:54.000Z,0
2022-10-17T04:03:11.147Z,0
2022-10-17T04:04:27.434Z,0
2022-10-17T04:05:43.724Z,0
2022-10-17T04:06:59.052Z,0
2022-10-17T04:08:15.348Z,0
2022-10-17T04:09:31.632Z,0
2022-10-17T04:10:47.923Z,0
2022-10-17T04:12:04.217Z,0
2022-10-17T04:13:20.517Z,0
2022-10-17T04:14:36.816Z,0
2022-10-17T04:15:53.112Z,0
2022-10-17T04:17:09.402Z,0
2022-10-17T04:18:25.696Z,0
2022-10-17T04:19:41.996Z,0
2022-10-17T04:20:58.281Z,0
2022-10-17T04:22:14.569Z,0
2022-10-17T04:23:29.884Z,0
2022-10-17T04:24:46.187Z,0
2022-10-17T04:26:02.479Z,0
2022-10-17T04:27:18.763Z,0
2022-10-17T04:28:35.055Z,0
2022-10-17T04:29:51.366Z,0
2022-10-17T04:31:07.653Z,0
2022-10-17T04:32:23.946Z,0
2022-10-17T04:33:40.229Z,0
2022-10-17T04:34:56.540Z,0
2022-10-17T04:36:12.819Z,0
2022-10-17T04:37:29.118Z,0
2022-10-17T04:38:45.420Z,0
2022-10-17T04:40:00.731Z,0
2022-10-17T04:41:17.015Z,0
2022-10-17T04:42:33.310Z,0
2022-10-17T04:43:49.597Z,0
2022-10-17T04:45:05.895Z,0
2022-10-17T04:46:22.193Z,0
2022-10-17T04:47:38.483Z,0
2022-10-17T04:48:54.790Z,0
2022-10-17T04:50:11.069Z,0
2022-10-17T04:51:27.376Z,0
2022-10-17T04:52:43.662Z,0
2022-10-17T04:53:59.955Z,0
2022-10-17T04:55:16.245Z,0
2022-10-17T04:56:31.571Z,0
2022-10-17T04:57:47.813Z,1
2022-10-17T04:59:04.099Z,0
2022-10-17T05:00:20.394Z,0
2022-10-17T05:01:36.678Z,0
2022-10-17T05:02:52.932Z,1
2022-10-17T05:04:09.237Z,0
2022-10-17T05:05:25.537Z,0
2022-10-17T05:06:41.815Z,0
2022-10-17T05:07:58.069Z,1
2022-10-17T05:09:14.327Z,2
2022-10-17T05:10:30.553Z,1
2022-10-17T05:11:46.811Z,1
2022-10-17T05:13:02.000Z,2
2022-10-17T05:14:18.298Z,2
2022-10-17T05:15:34.532Z,2
2022-10-17T05:16:50.781Z,4
2022-10-17T05:18:07.021Z,4
2022-10-17T05:19:23.263Z,5
2022-10-17T05:20:39.497Z,6
2022-10-17T05:21:55.732Z,8
2022-10-17T05:23:11.974Z,14
2022-10-17T05:24:28.212Z,23
2022-10-17T05:25:44.458Z,24
2022-10-17T05:27:00.698Z,30
2022-10-17T05:28:16.929Z,38
2022-10-17T05:29:32.195Z,45
2022-10-17T05:30:48.434Z,55
2022-10-17T05:32:04.677Z,63
2022-10-17T05:33:20.919Z,73
2022-10-17T05:34:37.149Z,83
2022-10-17T05:35:53.393Z,95
2022-10-17T05:37:09.624Z,109
2022-10-17T05:38:25.875Z,123
2022-10-17T05:39:42.111Z,136
2022-10-17T05:40:58.365Z,147
2022-10-17T05:42:14.587Z,166
2022-10-17T05:43:30.827Z,186
2022-10-17T05:44:47.073Z,209
2022-10-17T05:46:02.324Z,231
2022-10-17T05:47:18.565Z,244
2022-10-17T05:48:34.808Z,262
2022-10-17T05:49:51.045Z,288
2022-10-17T05:51:07.290Z,317
2022-10-17T05:52:23.535Z,338
2022-10-17T05:53:39.770Z,378
2022-10-17T05:54:56.012Z,412
2022-10-17T05:56:12.241Z,413
2022-10-17T05:57:28.480Z,436
2022-10-17T05:58:44.726Z,501
2022-10-17T06:00:00.962Z,511
2022-10-17T06:01:17.210Z,509
2022-10-17T06:02:32.457Z,581
2022-10-17T06:03:48.705Z,632
2022-10-17T06:05:04.947Z,637
2022-10-17T06:06:21.187Z,722
2022-10-17T06:07:37.424Z,753
2022-10-17T06:08:53.675Z,748
2022-10-17T06:10:09.906Z,802
2022-10-17T06:11:26.149Z,854
2022-10-17T06:12:42.385Z,894
2022-10-17T06:13:58.623Z,938
2022-10-17T06:15:14.862Z,970
2022-10-17T06:16:31.099Z,1014
2022-10-17T06:17:47.355Z,1056
2022-10-17T06:19:02.596Z,1098
2022-10-17T06:20:18.854Z,1151
2022-10-17T06:21:35.080Z,1185
2022-10-17T06:22:51.317Z,1245
2022-10-17T06:24:07.558Z,1294
2022-10-17T06:25:23.797Z,1309
2022-10-17T06:26:40.040Z,1428
2022-10-17T06:27:56.279Z,1476
2022-10-17T06:29:12.532Z,1494
2022-10-17T06:30:28.757Z,1537
2022-10-17T06:31:45.006Z,1484
2022-10-17T06:33:01.236Z,1719
2022-10-17T06:34:17.479Z,1829
2022-10-17T06:35:32.749Z,1674
2022-10-17T06:36:48.000Z,1869
2022-10-17T06:38:05.208Z,1911
2022-10-17T06:39:21.459Z,1878
2022-10-17T06:40:37.701Z,1937
2022-10-17T06:41:53.937Z,2110
2022-10-17T06:43:10.169Z,2086
2022-10-17T06:44:26.418Z,2147
2022-10-17T06:45:42.662Z,2204
2022-10-17T06:46:58.895Z,2264
2022-10-17T06:48:15.128Z,2296
2022-10-17T06:49:31.373Z,2107
2022-10-17T06:50:47.620Z,2857
2022-10-17T06:52:02.866Z,1264
2022-10-17T06:53:19.106Z,2561
2022-10-17T06:54:35.364Z,6358
2022-10-17T06:55:51.596Z,11135
2022-10-17T06:57:07.825Z,9509
2022-10-17T06:58:24.081Z,15756
2022-10-17T06:59:40.310Z,17508
2022-10-17T07:00:56.549Z,15649
2022-10-17T07:02:12.792Z,19273
2022-10-17T07:03:29.031Z,4088
2022-10-17T07:04:45.284Z,16292
2022-10-17T07:06:01.512Z,18186
2022-10-17T07:07:17.752Z,4716
2022-10-17T07:08:33.010Z,13533
2022-10-17T07:09:49.239Z,20467
2022-10-17T07:11:05.497Z,19448
2022-10-17T07:12:21.730Z,20954
2022-10-17T07:13:37.978Z,19910
2022-10-17T07:14:54.203Z,19674
2022-10-17T07:16:10.450Z,25361
2022-10-17T07:17:26.679Z,25737
2022-10-17T07:18:42.932Z,22807
2022-10-17T07:19:59.170Z,21099
2022-10-17T07:21:15.400Z,18066
2022-10-17T07:22:31.658Z,22747
2022-10-17T07:23:47.889Z,4471
2022-10-17T07:25:03.139Z,16177
2022-10-17T07:26:19.382Z,21208
2022-10-17T07:27:35.619Z,17962
2022-10-17T07:28:51.874Z,13446
2022-10-17T07:30:08.107Z,25749
2022-10-17T07:31:24.357Z,28814
2022-10-17T07:32:40.585Z,26848
2022-10-17T07:33:56.824Z,24228
2022-10-17T07:35:13.065Z,17608
2022-10-17T07:36:29.313Z,34236
2022-10-17T07:37:45.560Z,22346
2022-10-17T07:39:01.789Z,12725
2022-10-17T07:40:18.032Z,6635
2022-10-17T07:41:33.280Z,12455
2022-10-17T07:42:49.513Z,18606
2022-10-17T07:44:05.762Z,15379
2022-10-17T07:45:22.006Z,26868
2022-10-17T07:46:38.233Z,29451
2022-10-17T07:47:54.485Z,31725
2022-10-17T07:49:10.717Z,24337
2022-10-17T07:50:26.961Z,21092
2022-10-17T07:51:43.199Z,19009
2022-10-17T07:52:59.455Z,14254
2022-10-17T07:54:15.688Z,7473
2022-10-17T07:55:31.917Z,10264
2022-10-17T07:56:48.166Z,4307
2022-10-17T07:58:03.413Z,10719
2022-10-17T07:59:19.659Z,4548
2022-10-17T08:00:35.889Z,3098
2022-10-17T08:01:52.127Z,2845
2022-10-17T08:03:08.371Z,2758
2022-10-17T08:04:24.626Z,2738
2022-10-17T08:05:40.871Z,2699
2022-10-17T08:06:57.095Z,2751
2022-10-17T08:08:13.334Z,2839
2022-10-17T08:09:29.575Z,2922
2022-10-17T08:10:45.821Z,3009
2022-10-17T08:12:02.053Z,3357
2022-10-17T08:13:18.309Z,3307
2022-10-17T08:14:33.556Z,1963
2022-10-17T08:15:49.786Z,2333
2022-10-17T08:17:06.030Z,10666
2022-10-17T08:18:22.269Z,17485
2022-10-17T08:19:38.504Z,10323
2022-10-17T08:20:54.756Z,5439
2022-10-17T08:23:26.254Z,4260
2022-10-17T08:24:41.518Z,16780
2022-10-17T08:25:57.756Z,12067
2022-10-17T08:27:13.996Z,5918
2022-10-17T08:28:30.236Z,7228
2022-10-17T08:29:46.479Z,5998
2022-10-17T08:31:02.710Z,7448
2022-10-17T08:32:18.954Z,5042
2022-10-17T08:33:35.205Z,1896
2022-10-17T08:34:51.441Z,10444
2022-10-17T08:36:07.670Z,4184
2022-10-17T08:37:23.917Z,3354
2022-10-17T08:38:40.156Z,7536
2022-10-17T08:39:56.390Z,72232
2022-10-17T08:41:11.659Z,31049
2022-10-17T08:42:27.895Z,4861
2022-10-17T08:43:44.127Z,13167
2022-10-17T08:45:00.383Z,70234
2022-10-17T08:46:16.621Z,27981
2022-10-17T08:47:32.857Z,29709
2022-10-17T08:48:49.110Z,81855
2022-10-17T08:50:05.343Z,80836
2022-10-17T08:51:21.594Z,80566
2022-10-17T08:52:37.826Z,81588
2022-10-17T08:53:54.060Z,65003
2022-10-17T08:55:10.315Z,7361
2022-10-17T08:56:26.549Z,77791
2022-10-17T08:57:41.796Z,74900
2022-10-17T08:58:58.038Z,75659
2022-10-17T09:00:14.288Z,73288
2022-10-17T09:01:30.520Z,30649
2022-10-17T09:02:46.763Z,71516
2022-10-17T09:04:03.006Z,16243
2022-10-17T09:05:19.238Z,81817
2022-10-17T09:06:35.482Z,78672
2022-10-17T09:09:07.962Z,83092
2022-10-17T09:10:24.213Z,79866
2022-10-17T09:11:40.450Z,81037
2022-10-17T09:12:56.692Z,82865
2022-10-17T09:14:11.935Z,77664
2022-10-17T09:15:28.178Z,76968
2022-10-17T09:16:44.431Z,77621
2022-10-17T09:18:00.660Z,75332
2022-10-17T09:19:16.914Z,82216
2022-10-17T09:20:33.149Z,82790
2022-10-17T09:21:49.389Z,82581
2022-10-17T09:23:05.637Z,79135
2022-10-17T09:24:21.869Z,79145
2022-10-17T09:25:38.099Z,78329
2022-10-17T09:26:54.348Z,66218
2022-10-17T09:28:10.585Z,22511
2022-10-17T09:29:26.834Z,10052
2022-10-17T09:30:42.078Z,10380
2022-10-17T09:31:58.319Z,12356
2022-10-17T09:33:14.574Z,7609
2022-10-17T09:34:30.811Z,9695
2022-10-17T09:35:47.047Z,3171
2022-10-17T09:37:03.292Z,6935
2022-10-17T09:38:19.540Z,78021
2022-10-17T09:39:35.781Z,74654
2022-10-17T09:40:52.012Z,78249
2022-10-17T09:42:08.252Z,74927
2022-10-17T09:43:24.483Z,75026
2022-10-17T09:44:40.742Z,77858
2022-10-17T09:45:56.970Z,78583
2022-10-17T09:47:12.230Z,77821
2022-10-17T09:48:28.473Z,75593
2022-10-17T09:49:44.711Z,75601
2022-10-17T09:51:00.943Z,75096
2022-10-17T09:52:17.197Z,79893
2022-10-17T09:53:33.442Z,79910
2022-10-17T09:54:49.671Z,77868
2022-10-17T09:56:05.926Z,75202
2022-10-17T09:57:22.160Z,75318
2022-10-17T09:58:38.403Z,79376
2022-10-17T09:59:54.658Z,78655
2022-10-17T10:01:10.885Z,77778
2022-10-17T10:02:27.114Z,83771
2022-10-17T10:03:42.380Z,82128
2022-10-17T10:04:58.618Z,77427
2022-10-17T10:06:14.856Z,75200
2022-10-17T10:07:31.104Z,75940
2022-10-17T10:08:47.340Z,75207
2022-10-17T10:10:03.586Z,75491
2022-10-17T10:11:19.825Z,79936
2022-10-17T10:12:36.072Z,71587
2022-10-17T10:13:52.303Z,26390
2022-10-17T10:15:08.547Z,68829
2022-10-17T10:16:24.799Z,30505
2022-10-17T10:17:41.026Z,25168
2022-10-17T10:18:57.287Z,17686
2022-10-17T10:20:12.544Z,11651
2022-10-17T10:21:28.779Z,3091
2022-10-17T10:22:45.027Z,14944
2022-10-17T10:24:01.252Z,20795
2022-10-17T10:25:17.503Z,19069
2022-10-17T10:26:33.738Z,10145
2022-10-17T10:27:49.982Z,83722
2022-10-17T10:29:06.225Z,75935
2022-10-17T10:30:22.464Z,81303
2022-10-17T10:31:38.695Z,76870
2022-10-17T10:32:54.938Z,82784
2022-10-17T10:34:11.184Z,78485
2022-10-17T10:35:27.442Z,80934
2022-10-17T10:36:42.684Z,75934
2022-10-17T10:37:58.938Z,76617
2022-10-17T10:39:15.161Z,78568
2022-10-17T10:40:31.413Z,73085
2022-10-17T10:41:47.645Z,65201
2022-10-17T10:43:03.887Z,21351
2022-10-17T10:44:20.140Z,20718
2022-10-17T10:45:36.384Z,13735
2022-10-17T10:46:52.623Z,9158
2022-10-17T10:48:08.855Z,10767
2022-10-17T10:49:25.110Z,3179
2022-10-17T10:50:41.341Z,2662
2022-10-17T10:51:57.576Z,5681
2022-10-17T10:53:12.831Z,31730
2022-10-17T10:54:29.070Z,30001
2022-10-17T10:55:45.337Z,12654
2022-10-17T10:57:01.564Z,13825
2022-10-17T10:58:17.805Z,2902
2022-10-17T10:59:34.054Z,9009
2022-10-17T11:00:50.289Z,24661
2022-10-17T11:02:06.528Z,27933
2022-10-17T11:03:22.764Z,14769
2022-10-17T11:04:38.996Z,18639
2022-10-17T11:05:55.246Z,23149
2022-10-17T11:07:11.492Z,18996
2022-10-17T11:08:27.727Z,7999
2022-10-17T11:09:42.985Z,5702
2022-10-17T11:10:59.217Z,5664
2022-10-17T11:12:15.455Z,5087
2022-10-17T11:13:31.701Z,5063
2022-10-17T11:14:47.937Z,5451
2022-10-17T11:16:04.184Z,6947
2022-10-17T11:17:20.433Z,5939
2022-10-17T11:18:36.673Z,5800
2022-10-17T11:19:52.907Z,6990
2022-10-17T11:21:09.149Z,6417
2022-10-17T11:22:25.386Z,6909
2022-10-17T11:23:41.624Z,8295
2022-10-17T11:24:57.870Z,8464
2022-10-17T11:26:13.132Z,5479
2022-10-17T11:27:29.366Z,14548
2022-10-17T11:28:45.617Z,3774
2022-10-17T11:30:01.837Z,15975
2022-10-17T11:31:18.089Z,17034
2022-10-17T11:32:34.332Z,22028
2022-10-17T11:33:50.562Z,10954
2022-10-17T11:35:06.804Z,8514
2022-10-17T11:36:23.052Z,4843
2022-10-17T11:37:39.286Z,5919
2022-10-17T11:38:55.517Z,7075
2022-10-17T11:40:11.771Z,6121
2022-10-17T11:41:28.012Z,6582
2022-10-17T11:42:43.254Z,7293
2022-10-17T11:43:59.494Z,5747
2022-10-17T11:45:15.751Z,8563
2022-10-17T11:46:31.982Z,5294
2022-10-17T11:47:48.222Z,10764
2022-10-17T11:49:04.456Z,13830
2022-10-17T11:50:20.711Z,30159
2022-10-17T11:51:36.945Z,23362
2022-10-17T11:52:53.189Z,20685
2022-10-17T11:54:09.424Z,19926
2022-10-17T11:55:25.667Z,19432
2022-10-17T11:56:41.895Z,33461
2022-10-17T11:57:58.140Z,21025
2022-10-17T11:59:13.406Z,14011
2022-10-17T12:00:29.635Z,2682
2022-10-17T12:01:45.000Z,7222
2022-10-17T12:03:02.113Z,20772
2022-10-17T12:04:18.352Z,13581
2022-10-17T12:05:34.593Z,7373
2022-10-17T12:06:50.841Z,5688
2022-10-17T12:08:07.084Z,5964
2022-10-17T12:09:23.323Z,4925
2022-10-17T12:10:39.566Z,13130
2022-10-17T12:11:55.797Z,25828
2022-10-17T12:13:12.042Z,19785
2022-10-17T12:14:28.288Z,6032
2022-10-17T12:15:43.547Z,31869
2022-10-17T12:16:59.774Z,33887
2022-10-17T12:18:16.018Z,17815
2022-10-17T12:19:32.271Z,6086
2022-10-17T12:20:48.504Z,10411
2022-10-17T12:22:04.744Z,9393
2022-10-17T12:23:20.977Z,6094
2022-10-17T12:24:37.221Z,6841
2022-10-17T12:25:53.456Z,4430
2022-10-17T12:27:09.702Z,13005
2022-10-17T12:28:25.944Z,9890
2022-10-17T12:29:42.181Z,10544
2022-10-17T12:30:58.417Z,14504
2022-10-17T12:32:13.685Z,9885
2022-10-17T12:33:29.915Z,19124
2022-10-17T12:34:46.159Z,16088
2022-10-17T12:36:02.403Z,18641
2022-10-17T12:37:18.647Z,16315
2022-10-17T12:38:34.900Z,6319
2022-10-17T12:39:50.139Z,8219
2022-10-17T12:41:06.388Z,17832
2022-10-17T12:42:22.621Z,10394
2022-10-17T12:43:38.867Z,14133
2022-10-17T12:44:55.116Z,16540
2022-10-17T12:46:11.346Z,9891
2022-10-17T12:47:27.595Z,13197
2022-10-17T12:48:43.824Z,9592
2022-10-17T12:50:00.063Z,5735
2022-10-17T12:51:16.322Z,7687
2022-10-17T12:52:32.544Z,7694
2022-10-17T12:53:48.771Z,19474
2022-10-17T12:55:05.013Z,12091
2022-10-17T12:56:20.281Z,6747
2022-10-17T12:57:36.522Z,6066
2022-10-17T12:58:52.759Z,5451
2022-10-17T13:00:08.992Z,5005
2022-10-17T13:01:25.239Z,4523
2022-10-17T13:02:41.485Z,4845
2022-10-17T13:03:57.725Z,4952
2022-10-17T13:05:13.952Z,5015
2022-10-17T13:06:30.207Z,5169
2022-10-17T13:07:46.436Z,4951
2022-10-17T13:09:02.674Z,4890
2022-10-17T13:10:18.911Z,5033
2022-10-17T13:11:35.156Z,4652
2022-10-17T13:12:50.000Z,4187
2022-10-17T13:14:06.660Z,4925
2022-10-17T13:15:22.885Z,2413
2022-10-17T13:16:39.140Z,4492
2022-10-17T13:17:55.367Z,30045
2022-10-17T13:19:11.620Z,16575
2022-10-17T13:20:27.848Z,5298
2022-10-17T13:21:44.104Z,12768
2022-10-17T13:23:00.340Z,20045
2022-10-17T13:24:16.587Z,14855
2022-10-17T13:25:32.815Z,15120
2022-10-17T13:26:49.050Z,2834
2022-10-17T13:28:05.292Z,9962
2022-10-17T13:29:20.560Z,21994
2022-10-17T13:30:36.801Z,31938
2022-10-17T13:31:53.042Z,28295
2022-10-17T13:33:09.276Z,25565
2022-10-17T13:34:25.513Z,28799
2022-10-17T13:35:41.755Z,28866
2022-10-17T13:36:57.988Z,21332
2022-10-17T13:38:14.226Z,15718
2022-10-17T13:39:30.485Z,3768
2022-10-17T13:40:46.718Z,14040
2022-10-17T13:42:02.957Z,2663
2022-10-17T13:43:19.209Z,18602
2022-10-17T13:44:35.445Z,19704
2022-10-17T13:45:50.685Z,14450
2022-10-17T13:47:06.930Z,12812
2022-10-17T13:48:23.185Z,10992
2022-10-17T13:49:39.416Z,21947
2022-10-17T13:50:55.654Z,2627
2022-10-17T13:52:11.889Z,9217
2022-10-17T13:53:28.147Z,27395
2022-10-17T13:54:44.366Z,30933
2022-10-17T13:56:00.631Z,25351
2022-10-17T13:57:16.861Z,21296
2022-10-17T13:58:33.093Z,24051
2022-10-17T13:59:49.352Z,15673
2022-10-17T14:01:05.583Z,5085
2022-10-17T14:02:20.850Z,5674
2022-10-17T14:03:37.079Z,3901
2022-10-17T14:04:53.321Z,3429
2022-10-17T14:06:09.543Z,3203
2022-10-17T14:07:25.789Z,2761
2022-10-17T14:08:42.029Z,2664
2022-10-17T14:09:58.273Z,2734
2022-10-17T14:11:14.518Z,2600
2022-10-17T14:12:30.760Z,2414
2022-10-17T14:13:47.006Z,2516
2022-10-17T14:15:03.235Z,2452
2022-10-17T14:16:19.479Z,2307
2022-10-17T14:17:35.720Z,2414
2022-10-17T14:18:50.962Z,2491
2022-10-17T14:20:07.212Z,2331
2022-10-17T14:21:23.448Z,2396
2022-10-17T14:22:39.698Z,2358
2022-10-17T14:23:55.923Z,2249
2022-10-17T14:25:12.174Z,2304
2022-10-17T14:26:28.400Z,2299
2022-10-17T14:27:44.650Z,2265
2022-10-17T14:29:00.894Z,2118
2022-10-17T14:30:17.121Z,2161
2022-10-17T14:31:33.379Z,2132
2022-10-17T14:32:49.616Z,2099
2022-10-17T14:34:05.842Z,2153
2022-10-17T14:35:21.112Z,2077
2022-10-17T14:36:37.370Z,2061
2022-10-17T14:37:53.590Z,2026
2022-10-17T14:39:09.828Z,2040
2022-10-17T14:40:26.065Z,1964
2022-10-17T14:41:42.309Z,1926
2022-10-17T14:42:58.554Z,1973
2022-10-17T14:44:14.805Z,1920
2022-10-17T14:45:31.053Z,1896
2022-10-17T14:46:47.259Z,1857
2022-10-17T14:48:03.506Z,1843
2022-10-17T14:49:19.763Z,1838
2022-10-17T14:51:52.233Z,1905
2022-10-17T14:53:07.509Z,1699
2022-10-17T14:54:23.720Z,1681
2022-10-17T14:55:39.957Z,1646
2022-10-17T14:56:56.218Z,1640
2022-10-17T14:58:12.433Z,1705
2022-10-17T14:59:28.680Z,1649
2022-10-17T15:00:44.915Z,1674
2022-10-17T15:02:01.173Z,1594
2022-10-17T15:03:17.427Z,1565
2022-10-17T15:04:33.657Z,1549
2022-10-17T15:05:49.887Z,1426
2022-10-17T15:07:06.121Z,1469
2022-10-17T15:08:22.373Z,1379
2022-10-17T15:09:37.632Z,1348
2022-10-17T15:10:53.866Z,1331
2022-10-17T15:12:10.125Z,1313
2022-10-17T15:13:26.343Z,1242
2022-10-17T15:14:42.573Z,1201
2022-10-17T15:15:58.838Z,1217
2022-10-17T15:17:15.050Z,1160
2022-10-17T15:18:31.308Z,1139
2022-10-17T15:19:47.538Z,1137
2022-10-17T15:21:03.780Z,509
2022-10-17T15:22:20.026Z,1002
2022-10-17T15:23:36.283Z,4255
2022-10-17T15:24:52.495Z,4651
2022-10-17T15:26:07.765Z,3667
2022-10-17T15:27:24.013Z,3087
2022-10-17T15:28:40.239Z,3607
2022-10-17T15:29:56.477Z,3245
2022-10-17T15:31:12.708Z,2077
2022-10-17T15:32:28.974Z,2086
2022-10-17T15:33:45.211Z,2102
2022-10-17T15:35:01.450Z,1387
2022-10-17T15:36:17.669Z,877
2022-10-17T15:37:33.922Z,780
2022-10-17T15:38:50.175Z,723
2022-10-17T15:40:06.390Z,680
2022-10-17T15:41:22.634Z,647
2022-10-17T15:42:37.909Z,610
2022-10-17T15:43:54.129Z,598
2022-10-17T15:45:10.365Z,597
2022-10-17T15:46:26.617Z,569
2022-10-17T15:47:42.876Z,533
2022-10-17T15:48:59.102Z,519
2022-10-17T15:50:15.353Z,483
2022-10-17T15:51:31.581Z,454
2022-10-17T15:52:47.829Z,430
2022-10-17T15:54:04.056Z,405
2022-10-17T15:55:20.292Z,385
2022-10-17T15:56:36.528Z,371
2022-10-17T15:57:52.764Z,350
2022-10-17T15:59:08.031Z,326
2022-10-17T16:00:24.288Z,302
2022-10-17T16:01:40.502Z,275
2022-10-17T16:02:56.770Z,256
2022-10-17T16:04:13.001Z,235
2022-10-17T16:05:29.249Z,214
2022-10-17T16:06:45.473Z,197
2022-10-17T16:08:01.729Z,176
2022-10-17T16:09:17.965Z,156
2022-10-17T16:10:34.185Z,137
2022-10-17T16:11:50.437Z,121
2022-10-17T16:13:06.693Z,104
2022-10-17T16:14:22.910Z,96
2022-10-17T16:15:38.178Z,83
2022-10-17T16:16:54.405Z,72
2022-10-17T16:18:10.641Z,63
2022-10-17T16:19:26.894Z,52
2022-10-17T16:20:43.140Z,44
2022-10-17T16:21:59.373Z,38
2022-10-17T16:23:15.631Z,31
2022-10-17T16:24:31.869Z,26
2022-10-17T16:25:48.089Z,23
2022-10-17T16:27:04.341Z,19
2022-10-17T16:28:20.581Z,14
2022-10-17T16:29:36.805Z,12
2022-10-17T16:30:53.061Z,10
2022-10-17T16:32:08.305Z,8
2022-10-17T16:33:24.563Z,6
2022-10-17T16:34:40.786Z,5
2022-10-17T16:35:57.018Z,3
2022-10-17T16:37:13.261Z,3
2022-10-17T16:38:29.521Z,2
2022-10-17T16:39:45.756Z,2
2022-10-17T16:41:01.972Z,1
2022-10-17T16:42:18.236Z,1
2022-10-17T16:43:34.511Z,0
2022-10-17T16:44:50.814Z,0
2022-10-17T16:46:07.103Z,0
2022-10-17T16:47:23.392Z,0
2022-10-17T16:48:38.707Z,0
2022-10-17T16:49:55.004Z,0
2022-10-17T16:51:11.297Z,0
2022-10-17T16:52:27.590Z,0
2022-10-17T16:53:43.910Z,0
2022-10-17T16:54:59.198Z,0
2022-10-17T16:56:15.506Z,0
2022-10-17T16:57:31.807Z,0
2022-10-17T16:58:48.100Z,0
2022-10-17T17:00:04.371Z,0
2022-10-17T17:01:20.685Z,0
2022-10-17T17:02:36.990Z,0
2022-10-17T17:03:53.275Z,0
2022-10-17T17:05:09.544Z,0
2022-10-17T17:06:25.875Z,0
2022-10-17T17:07:42.134Z,0
2022-10-17T17:08:58.434Z,0
2022-10-17T17:10:14.742Z,0
2022-10-17T17:11:30.060Z,0
2022-10-17T17:12:46.329Z,0
2022-10-17T17:14:02.616Z,0
2022-10-17T17:15:18.912Z,0
2022-10-17T17:16:35.232Z,0
2022-10-17T17:17:51.499Z,0
2022-10-17T17:19:07.795Z,0
2022-10-17T17:20:24.089Z,0
2022-10-17T17:21:40.385Z,0
2022-10-17T17:24:12.971Z,0
2022-10-17T17:25:29.268Z,0
2022-10-17T17:26:45.589Z,0
2022-10-17T17:28:00.903Z,0
2022-10-17T17:29:17.199Z,0
2022-10-17T17:30:33.457Z,0
2022-10-17T17:31:49.751Z,0
2022-10-17T17:33:06.081Z,0
2022-10-17T17:34:22.369Z,0